The Mercy Boys — 9HA2770 — position and weather

sailwx.info

Track history (hours):
 
Tides and Currents Weather Stations Pressure Air Temp Water Temp Dewpoint Dewpoint Depression Visibility Wind Speed Wind Dir Waves Ship Positions

The Mercy Boys

Last reported at 2018-Jun-22 07:30 UTC. Time now 2018-Jun-22 07:44 UTC.
Position N 37°53' E 023°13'.

Length 49 m; draft 3.5 m.

Type: Pleasure craft. MMSI: 215607000.

Date/timePositionNaut miles runAvg speedWind from/ knotsBaromVisibWave heightAir tempDewpointWater temp
2018-Jun-22 07:30N 37°53' E 023°13'612.3
2018-Jun-22 07:00N 37°53' E 023°06'7 8.5
2018-Jun-22 06:10N 37°57' E 022°58'1 6.4
2018-Jun-22 06:00N 37°58' E 022°57'0 0.8
2018-Jun-22 05:25N 37°58' E 022°57'0 0.1
2018-Jun-22 04:52N 37°58' E 022°57'0 0.0
2018-Jun-22 04:22N 37°58' E 022°57'0 0.1
2018-Jun-22 04:01N 37°58' E 022°57'0 0.0
2018-Jun-22 03:31N 37°58' E 022°57'0 0.0
2018-Jun-22 02:34N 37°58' E 022°57'0 0.0
2018-Jun-22 02:28N 37°58' E 022°57'0 0.0
2018-Jun-22 01:07N 37°58' E 022°57'0 0.0
2018-Jun-22 00:49N 37°58' E 022°57'0 0.0
2018-Jun-22 00:04N 37°58' E 022°57'0 0.0
2018-Jun-21 23:55N 37°58' E 022°57'0 0.0
2018-Jun-21 23:22N 37°58' E 022°57'0 0.0
2018-Jun-21 22:55N 37°58' E 022°57'0 0.0
2018-Jun-21 22:28N 37°58' E 022°57'0 0.0
2018-Jun-21 21:49N 37°58' E 022°57'0 0.0
2018-Jun-21 20:04N 37°58' E 022°57'0 0.1
2018-Jun-21 19:58N 37°58' E 022°57'1 2.6
2018-Jun-21 19:29N 37°59' E 022°56'  
2018-Jun-19 04:38N 37°53' E 015°43'111.3
2018-Jun-19 04:30N 37°53' E 015°41'611.3
2018-Jun-19 03:59N 37°56' E 015°35'711.4
2018-Jun-19 03:21N 38°03' E 015°34'513.7
2018-Jun-19 02:56N 38°09' E 015°35'613.4
2018-Jun-19 02:30N 38°14' E 015°36'12912.0
2018-Jun-18 15:43N 40°14' E 014°33'412.6
2018-Jun-18 15:23N 40°18' E 014°30'512.5
2018-Jun-18 15:01N 40°22' E 014°27'612.3
2018-Jun-18 14:30N 40°27' E 014°23'812.2
2018-Jun-18 13:51N 40°34' E 014°18'412.1
2018-Jun-18 13:31N 40°38' E 014°19'612.1
2018-Jun-18 13:00N 40°42' E 014°26'2 0.1
2018-Jun-17 14:39N 40°43' E 014°28'1 8.0
2018-Jun-17 14:30N 40°42' E 014°27'612.0
2018-Jun-17 14:00N 40°39' E 014°20'611.5
2018-Jun-17 13:30N 40°34' E 014°17'2 0.5
2018-Jun-17 08:13N 40°32' E 014°15'2 9.1
2018-Jun-17 08:00N 40°34' E 014°16'2 3.2
2018-Jun-17 07:30N 40°34' E 014°14'0 0.0
2018-Jun-17 07:00N 40°34' E 014°14'0 0.0
2018-Jun-17 06:30N 40°34' E 014°14'0 0.0
2018-Jun-17 06:00N 40°34' E 014°14'0 0.0
2018-Jun-17 05:30N 40°34' E 014°14'0 0.0
2018-Jun-17 05:00N 40°34' E 014°14'0 0.0
2018-Jun-17 04:24N 40°34' E 014°14'0 0.0
2018-Jun-17 04:00N 40°34' E 014°14'0 0.0
2018-Jun-17 03:30N 40°34' E 014°14'0 0.0
2018-Jun-17 03:00N 40°34' E 014°14'0 0.0
2018-Jun-17 02:27N 40°34' E 014°14'0 0.0
2018-Jun-17 01:54N 40°34' E 014°14'0 0.0
2018-Jun-17 01:30N 40°34' E 014°14'0 0.0
2018-Jun-16 23:18N 40°34' E 014°14'0 0.0
2018-Jun-16 23:00N 40°34' E 014°14'0 0.0
2018-Jun-16 21:09N 40°34' E 014°14'0 0.1
2018-Jun-16 20:40N 40°34' E 014°14'1 4.6
2018-Jun-16 20:30N 40°34' E 014°13'510.5
2018-Jun-16 20:01N 40°37' E 014°08'611.1
2018-Jun-16 19:30N 40°41' E 014°02'4 7.0
2018-Jun-16 18:54N 40°44' E 013°58'0 0.0
2018-Jun-16 18:30N 40°44' E 013°58'0 0.0
2018-Jun-16 18:00N 40°44' E 013°58'0 0.0
2018-Jun-16 17:27N 40°44' E 013°58'0 0.0
2018-Jun-16 17:00N 40°44' E 013°58'0 0.0
2018-Jun-16 16:30N 40°44' E 013°58'0 0.0
2018-Jun-16 15:54N 40°44' E 013°58'0 0.0
2018-Jun-16 15:18N 40°44' E 013°58'0 0.0
2018-Jun-16 15:00N 40°44' E 013°58'0 0.0
2018-Jun-16 14:27N 40°44' E 013°58'0 0.0
2018-Jun-16 14:00N 40°44' E 013°58'0 0.0
2018-Jun-16 13:30N 40°44' E 013°58'0 0.0
2018-Jun-16 13:00N 40°44' E 013°58'0 0.0
2018-Jun-16 12:30N 40°44' E 013°58'0 0.0
2018-Jun-16 12:00N 40°44' E 013°58'0 0.0
2018-Jun-16 11:27N 40°44' E 013°58'0 0.0
2018-Jun-16 10:57N 40°44' E 013°58'0 0.0
2018-Jun-16 10:24N 40°44' E 013°58'0 0.0
2018-Jun-16 09:54N 40°44' E 013°58'0 0.0
2018-Jun-16 09:30N 40°44' E 013°58'0 0.0
2018-Jun-16 08:57N 40°44' E 013°58'0 0.0
2018-Jun-16 07:45N 40°44' E 013°58'0 0.0
2018-Jun-16 07:21N 40°44' E 013°58'0 0.0
2018-Jun-16 07:00N 40°44' E 013°58'2 4.6
2018-Jun-16 06:30N 40°42' E 014°00'510.6
2018-Jun-16 06:00N 40°39' E 014°06'511.0
2018-Jun-16 05:30N 40°35' E 014°12'3 5.1
2018-Jun-16 05:00N 40°34' E 014°14'0 0.0
2018-Jun-16 04:30N 40°34' E 014°14'0 0.0
2018-Jun-16 03:12N 40°34' E 014°14'0 0.0
2018-Jun-16 02:57N 40°34' E 014°14'0 0.0
2018-Jun-16 02:24N 40°34' E 014°14'0 0.0
2018-Jun-16 02:00N 40°34' E 014°14'0 0.0
2018-Jun-16 01:24N 40°34' E 014°14'0 0.0
2018-Jun-16 01:00N 40°34' E 014°14'0 0.0
2018-Jun-16 00:30N 40°34' E 014°14'0 0.0
2018-Jun-16 00:00N 40°34' E 014°14'0 0.0
2018-Jun-15 23:24N 40°34' E 014°14'0 0.0
2018-Jun-15 23:00N 40°34' E 014°14'0 0.1
2018-Jun-15 22:24N 40°34' E 014°14'0 0.0
2018-Jun-15 22:00N 40°34' E 014°14'0 0.0
2018-Jun-15 21:30N 40°34' E 014°14'1 1.8
2018-Jun-15 21:00N 40°34' E 014°15'612.3
2018-Jun-15 20:30N 40°34' E 014°23'611.4
2018-Jun-15 20:00N 40°37' E 014°30'0 0.1
2018-Jun-15 17:10N 40°37' E 014°30'0 0.0
2018-Jun-15 16:52N 40°37' E 014°30'0 0.1
2018-Jun-15 16:07N 40°37' E 014°30'0 0.0
2018-Jun-15 15:40N 40°37' E 014°30'0 0.0
2018-Jun-15 15:19N 40°37' E 014°30'0 0.0
2018-Jun-15 14:58N 40°37' E 014°30'0 0.0
2018-Jun-15 14:25N 40°37' E 014°30'0 0.1
2018-Jun-15 14:01N 40°37' E 014°30'4 8.1
2018-Jun-15 13:30N 40°34' E 014°26'711.7
2018-Jun-15 12:56N 40°34' E 014°17'2 5.7
2018-Jun-15 12:30N 40°34' E 014°14'0 0.0
2018-Jun-15 11:51N 40°34' E 014°14'0 0.0
2018-Jun-15 11:30N 40°34' E 014°14'0 0.0
2018-Jun-15 10:45N 40°34' E 014°14'0 0.0
2018-Jun-15 10:27N 40°34' E 014°14'0 0.0
2018-Jun-15 09:51N 40°34' E 014°14'0 0.0
2018-Jun-15 09:21N 40°34' E 014°14'0 0.0
2018-Jun-15 09:00N 40°34' E 014°14'0 0.0
2018-Jun-15 08:30N 40°34' E 014°14'0 0.0
2018-Jun-15 07:57N 40°34' E 014°14'0 0.0
2018-Jun-15 07:30N 40°34' E 014°14'0 0.0
2018-Jun-15 07:00N 40°34' E 014°14'0 0.0
2018-Jun-15 06:03N 40°34' E 014°14'0 0.0
2018-Jun-15 05:33N 40°34' E 014°14'0 0.0
2018-Jun-15 05:15N 40°34' E 014°14'0 0.0
2018-Jun-15 04:54N 40°34' E 014°14'0 0.0
2018-Jun-15 04:18N 40°34' E 014°14'0 0.0
2018-Jun-15 03:21N 40°34' E 014°14'0 0.0
2018-Jun-15 01:54N 40°34' E 014°14'0 0.0
2018-Jun-15 01:30N 40°34' E 014°14'0 0.0
2018-Jun-15 00:54N 40°34' E 014°14'0 0.1
2018-Jun-15 00:30N 40°34' E 014°14'0 0.0
2018-Jun-14 23:54N 40°34' E 014°14'0 0.0
2018-Jun-14 23:09N 40°34' E 014°14'0 0.0
2018-Jun-14 22:54N 40°34' E 014°14'0 0.0
2018-Jun-14 22:27N 40°34' E 014°14'0 0.0
2018-Jun-14 21:48N 40°34' E 014°14'0 0.0
2018-Jun-14 20:21N 40°34' E 014°14'0 0.0
2018-Jun-14 19:51N 40°34' E 014°14'0 0.0
2018-Jun-14 19:24N 40°34' E 014°14'0 0.0
2018-Jun-14 18:36N 40°34' E 014°14'0 0.0
2018-Jun-14 18:30N 40°34' E 014°14'0 0.0
2018-Jun-14 18:00N 40°34' E 014°14'0 0.0
2018-Jun-14 17:24N 40°34' E 014°14'0 0.1
2018-Jun-14 16:57N 40°34' E 014°14'4 8.3
2018-Jun-14 16:30N 40°37' E 014°17'4 8.8
2018-Jun-14 16:00N 40°38' E 014°22'1 1.0
2018-Jun-14 15:29N 40°38' E 014°23'0 0.1
2018-Jun-14 14:59N 40°38' E 014°23'0 0.0
2018-Jun-14 14:29N 40°38' E 014°23'0 0.0
2018-Jun-14 13:59N 40°38' E 014°23'0 0.1
2018-Jun-14 13:29N 40°38' E 014°23'0 0.1
2018-Jun-14 12:56N 40°38' E 014°23'0 0.1
2018-Jun-14 12:29N 40°38' E 014°23'2 3.3
2018-Jun-14 12:01N 40°40' E 014°23'5 9.6
2018-Jun-14 11:28N 40°43' E 014°28'0 0.0
2018-Jun-13 22:32N 40°43' E 014°28'0 0.0
2018-Jun-13 16:56N 40°43' E 014°28'1 1.4
2018-Jun-13 16:26N 40°43' E 014°28'512.0
2018-Jun-13 16:00N 40°40' E 014°22'611.8
2018-Jun-13 15:30N 40°35' E 014°17'4 0.7
2018-Jun-13 10:27N 40°32' E 014°15'2 3.8
2018-Jun-13 10:00N 40°34' E 014°14'0 0.1
2018-Jun-13 09:14N 40°34' E 014°14'0 0.0
2018-Jun-13 08:56N 40°34' E 014°14'0 0.0
2018-Jun-13 08:17N 40°34' E 014°14'0 0.0
2018-Jun-13 07:59N 40°34' E 014°14'0 0.0
2018-Jun-13 07:23N 40°34' E 014°14'0 0.0
2018-Jun-13 06:56N 40°34' E 014°14'0 0.0
2018-Jun-13 06:29N 40°34' E 014°14'0 0.0
2018-Jun-13 05:56N 40°34' E 014°14'0 0.0
2018-Jun-13 05:26N 40°34' E 014°14'0 0.0
2018-Jun-13 04:59N 40°34' E 014°14'0 0.0
2018-Jun-13 04:29N 40°34' E 014°14'0 0.0
2018-Jun-13 03:59N 40°34' E 014°14'0 0.1
2018-Jun-13 03:26N 40°34' E 014°14'0 0.1
2018-Jun-13 02:59N 40°34' E 014°14'0 0.0
2018-Jun-13 02:29N 40°34' E 014°14'0 0.0
2018-Jun-13 01:59N 40°34' E 014°14'0 0.0
2018-Jun-13 01:29N 40°34' E 014°14'0 0.0
2018-Jun-13 00:56N 40°34' E 014°14'0 0.0
2018-Jun-13 00:29N 40°34' E 014°14'0 0.0
2018-Jun-12 23:59N 40°34' E 014°14'0 0.0
2018-Jun-12 23:29N 40°34' E 014°14'0 0.0
2018-Jun-12 22:59N 40°34' E 014°14'0 0.0
2018-Jun-12 22:29N 40°34' E 014°14'0 0.0
2018-Jun-12 21:59N 40°34' E 014°14'0 0.0
2018-Jun-12 21:29N 40°34' E 014°14'0 0.0
2018-Jun-12 20:59N 40°34' E 014°14'0 0.0
2018-Jun-12 20:29N 40°34' E 014°14'0 0.0
2018-Jun-12 19:56N 40°34' E 014°14'0 0.0
2018-Jun-12 19:29N 40°34' E 014°14'0 0.0
2018-Jun-12 18:53N 40°34' E 014°14'0 0.0
2018-Jun-12 18:29N 40°34' E 014°14'0 0.0
2018-Jun-12 17:59N 40°34' E 014°14'0 0.0
2018-Jun-12 17:29N 40°34' E 014°14'0 0.0
2018-Jun-12 16:59N 40°34' E 014°14'0 0.0
2018-Jun-12 16:26N 40°34' E 014°14'0 0.0
2018-Jun-12 15:59N 40°34' E 014°14'0 0.0
2018-Jun-12 15:29N 40°34' E 014°14'0 0.0
2018-Jun-12 14:59N 40°34' E 014°14'0 0.0
2018-Jun-12 14:29N 40°34' E 014°14'0 0.1
2018-Jun-12 13:59N 40°34' E 014°14'0 0.0
2018-Jun-12 13:29N 40°34' E 014°14'0 0.1
2018-Jun-12 12:53N 40°34' E 014°14'0 0.0
2018-Jun-12 12:23N 40°34' E 014°14'0 0.1
2018-Jun-12 11:56N 40°34' E 014°14'3 7.3
2018-Jun-12 11:30N 40°36' E 014°17'5 9.8
2018-Jun-12 11:00N 40°39' E 014°22'6 7.7
2018-Jun-12 10:11N 40°43' E 014°28'  
Track history (hours):
 
Tides and Currents Weather Stations Pressure Air Temp Water Temp Dewpoint Dewpoint Depression Visibility Wind Speed Wind Dir Waves Ship Positions

The Mercy Boys

Last reported at 2018-Jun-22 07:30 UTC. Time now 2018-Jun-22 07:44 UTC.
Position N 37°53' E 023°13'.

Length 49 m; draft 3.5 m.

Type: Pleasure craft. MMSI: 215607000.

Date/timePositionNaut miles runAvg speedWind from/ knotsBaromVisibWave heightAir tempDewpointWater temp
2018-Jun-22 07:30N 37°53' E 023°13'612.3
2018-Jun-22 07:00N 37°53' E 023°06'7 8.5
2018-Jun-22 06:10N 37°57' E 022°58'1 6.4
2018-Jun-22 06:00N 37°58' E 022°57'0 0.8
2018-Jun-22 05:25N 37°58' E 022°57'0 0.1
2018-Jun-22 04:52N 37°58' E 022°57'0 0.0
2018-Jun-22 04:22N 37°58' E 022°57'0 0.1
2018-Jun-22 04:01N 37°58' E 022°57'0 0.0
2018-Jun-22 03:31N 37°58' E 022°57'0 0.0
2018-Jun-22 02:34N 37°58' E 022°57'0 0.0
2018-Jun-22 02:28N 37°58' E 022°57'0 0.0
2018-Jun-22 01:07N 37°58' E 022°57'0 0.0
2018-Jun-22 00:49N 37°58' E 022°57'0 0.0
2018-Jun-22 00:04N 37°58' E 022°57'0 0.0
2018-Jun-21 23:55N 37°58' E 022°57'0 0.0
2018-Jun-21 23:22N 37°58' E 022°57'0 0.0
2018-Jun-21 22:55N 37°58' E 022°57'0 0.0
2018-Jun-21 22:28N 37°58' E 022°57'0 0.0
2018-Jun-21 21:49N 37°58' E 022°57'0 0.0
2018-Jun-21 20:04N 37°58' E 022°57'0 0.1
2018-Jun-21 19:58N 37°58' E 022°57'1 2.6
2018-Jun-21 19:29N 37°59' E 022°56'  
2018-Jun-19 04:38N 37°53' E 015°43'111.3
2018-Jun-19 04:30N 37°53' E 015°41'611.3
2018-Jun-19 03:59N 37°56' E 015°35'711.4
2018-Jun-19 03:21N 38°03' E 015°34'513.7
2018-Jun-19 02:56N 38°09' E 015°35'613.4
2018-Jun-19 02:30N 38°14' E 015°36'12912.0
2018-Jun-18 15:43N 40°14' E 014°33'412.6
2018-Jun-18 15:23N 40°18' E 014°30'512.5
2018-Jun-18 15:01N 40°22' E 014°27'612.3
2018-Jun-18 14:30N 40°27' E 014°23'812.2
2018-Jun-18 13:51N 40°34' E 014°18'412.1
2018-Jun-18 13:31N 40°38' E 014°19'612.1
2018-Jun-18 13:00N 40°42' E 014°26'2 0.1
2018-Jun-17 14:39N 40°43' E 014°28'1 8.0
2018-Jun-17 14:30N 40°42' E 014°27'612.0
2018-Jun-17 14:00N 40°39' E 014°20'611.5
2018-Jun-17 13:30N 40°34' E 014°17'2 0.5
2018-Jun-17 08:13N 40°32' E 014°15'2 9.1
2018-Jun-17 08:00N 40°34' E 014°16'2 3.2
2018-Jun-17 07:30N 40°34' E 014°14'0 0.0
2018-Jun-17 07:00N 40°34' E 014°14'0 0.0
2018-Jun-17 06:30N 40°34' E 014°14'0 0.0
2018-Jun-17 06:00N 40°34' E 014°14'0 0.0
2018-Jun-17 05:30N 40°34' E 014°14'0 0.0
2018-Jun-17 05:00N 40°34' E 014°14'0 0.0
2018-Jun-17 04:24N 40°34' E 014°14'0 0.0
2018-Jun-17 04:00N 40°34' E 014°14'0 0.0
2018-Jun-17 03:30N 40°34' E 014°14'0 0.0
2018-Jun-17 03:00N 40°34' E 014°14'0 0.0
2018-Jun-17 02:27N 40°34' E 014°14'0 0.0
2018-Jun-17 01:54N 40°34' E 014°14'0 0.0
2018-Jun-17 01:30N 40°34' E 014°14'0 0.0
2018-Jun-16 23:18N 40°34' E 014°14'0 0.0
2018-Jun-16 23:00N 40°34' E 014°14'0 0.0
2018-Jun-16 21:09N 40°34' E 014°14'0 0.1
2018-Jun-16 20:40N 40°34' E 014°14'1 4.6
2018-Jun-16 20:30N 40°34' E 014°13'510.5
2018-Jun-16 20:01N 40°37' E 014°08'611.1
2018-Jun-16 19:30N 40°41' E 014°02'4 7.0
2018-Jun-16 18:54N 40°44' E 013°58'0 0.0
2018-Jun-16 18:30N 40°44' E 013°58'0 0.0
2018-Jun-16 18:00N 40°44' E 013°58'0 0.0
2018-Jun-16 17:27N 40°44' E 013°58'0 0.0
2018-Jun-16 17:00N 40°44' E 013°58'0 0.0
2018-Jun-16 16:30N 40°44' E 013°58'0 0.0
2018-Jun-16 15:54N 40°44' E 013°58'0 0.0
2018-Jun-16 15:18N 40°44' E 013°58'0 0.0
2018-Jun-16 15:00N 40°44' E 013°58'0 0.0
2018-Jun-16 14:27N 40°44' E 013°58'0 0.0
2018-Jun-16 14:00N 40°44' E 013°58'0 0.0
2018-Jun-16 13:30N 40°44' E 013°58'0 0.0
2018-Jun-16 13:00N 40°44' E 013°58'0 0.0
2018-Jun-16 12:30N 40°44' E 013°58'0 0.0
2018-Jun-16 12:00N 40°44' E 013°58'0 0.0
2018-Jun-16 11:27N 40°44' E 013°58'0 0.0
2018-Jun-16 10:57N 40°44' E 013°58'0 0.0
2018-Jun-16 10:24N 40°44' E 013°58'0 0.0
2018-Jun-16 09:54N 40°44' E 013°58'0 0.0
2018-Jun-16 09:30N 40°44' E 013°58'0 0.0
2018-Jun-16 08:57N 40°44' E 013°58'0 0.0
2018-Jun-16 07:45N 40°44' E 013°58'0 0.0
2018-Jun-16 07:21N 40°44' E 013°58'0 0.0
2018-Jun-16 07:00N 40°44' E 013°58'2 4.6
2018-Jun-16 06:30N 40°42' E 014°00'510.6
2018-Jun-16 06:00N 40°39' E 014°06'511.0
2018-Jun-16 05:30N 40°35' E 014°12'3 5.1
2018-Jun-16 05:00N 40°34' E 014°14'0 0.0
2018-Jun-16 04:30N 40°34' E 014°14'0 0.0
2018-Jun-16 03:12N 40°34' E 014°14'0 0.0
2018-Jun-16 02:57N 40°34' E 014°14'0 0.0
2018-Jun-16 02:24N 40°34' E 014°14'0 0.0
2018-Jun-16 02:00N 40°34' E 014°14'0 0.0
2018-Jun-16 01:24N 40°34' E 014°14'0 0.0
2018-Jun-16 01:00N 40°34' E 014°14'0 0.0
2018-Jun-16 00:30N 40°34' E 014°14'0 0.0
2018-Jun-16 00:00N 40°34' E 014°14'0 0.0
2018-Jun-15 23:24N 40°34' E 014°14'0 0.0
2018-Jun-15 23:00N 40°34' E 014°14'0 0.1
2018-Jun-15 22:24N 40°34' E 014°14'0 0.0
2018-Jun-15 22:00N 40°34' E 014°14'0 0.0
2018-Jun-15 21:30N 40°34' E 014°14'1 1.8
2018-Jun-15 21:00N 40°34' E 014°15'612.3
2018-Jun-15 20:30N 40°34' E 014°23'611.4
2018-Jun-15 20:00N 40°37' E 014°30'0 0.1
2018-Jun-15 17:10N 40°37' E 014°30'0 0.0
2018-Jun-15 16:52N 40°37' E 014°30'0 0.1
2018-Jun-15 16:07N 40°37' E 014°30'0 0.0
2018-Jun-15 15:40N 40°37' E 014°30'0 0.0
2018-Jun-15 15:19N 40°37' E 014°30'0 0.0
2018-Jun-15 14:58N 40°37' E 014°30'0 0.0
2018-Jun-15 14:25N 40°37' E 014°30'0 0.1
2018-Jun-15 14:01N 40°37' E 014°30'4 8.1
2018-Jun-15 13:30N 40°34' E 014°26'711.7
2018-Jun-15 12:56N 40°34' E 014°17'2 5.7
2018-Jun-15 12:30N 40°34' E 014°14'0 0.0
2018-Jun-15 11:51N 40°34' E 014°14'0 0.0
2018-Jun-15 11:30N 40°34' E 014°14'0 0.0
2018-Jun-15 10:45N 40°34' E 014°14'0 0.0
2018-Jun-15 10:27N 40°34' E 014°14'0 0.0
2018-Jun-15 09:51N 40°34' E 014°14'0 0.0
2018-Jun-15 09:21N 40°34' E 014°14'0 0.0
2018-Jun-15 09:00N 40°34' E 014°14'0 0.0
2018-Jun-15 08:30N 40°34' E 014°14'0 0.0
2018-Jun-15 07:57N 40°34' E 014°14'0 0.0
2018-Jun-15 07:30N 40°34' E 014°14'0 0.0
2018-Jun-15 07:00N 40°34' E 014°14'0 0.0
2018-Jun-15 06:03N 40°34' E 014°14'0 0.0
2018-Jun-15 05:33N 40°34' E 014°14'0 0.0
2018-Jun-15 05:15N 40°34' E 014°14'0 0.0
2018-Jun-15 04:54N 40°34' E 014°14'0 0.0
2018-Jun-15 04:18N 40°34' E 014°14'0 0.0
2018-Jun-15 03:21N 40°34' E 014°14'0 0.0
2018-Jun-15 01:54N 40°34' E 014°14'0 0.0
2018-Jun-15 01:30N 40°34' E 014°14'0 0.0
2018-Jun-15 00:54N 40°34' E 014°14'0 0.1
2018-Jun-15 00:30N 40°34' E 014°14'0 0.0
2018-Jun-14 23:54N 40°34' E 014°14'0 0.0
2018-Jun-14 23:09N 40°34' E 014°14'0 0.0
2018-Jun-14 22:54N 40°34' E 014°14'0 0.0
2018-Jun-14 22:27N 40°34' E 014°14'0 0.0
2018-Jun-14 21:48N 40°34' E 014°14'0 0.0
2018-Jun-14 20:21N 40°34' E 014°14'0 0.0
2018-Jun-14 19:51N 40°34' E 014°14'0 0.0
2018-Jun-14 19:24N 40°34' E 014°14'0 0.0
2018-Jun-14 18:36N 40°34' E 014°14'0 0.0
2018-Jun-14 18:30N 40°34' E 014°14'0 0.0
2018-Jun-14 18:00N 40°34' E 014°14'0 0.0
2018-Jun-14 17:24N 40°34' E 014°14'0 0.1
2018-Jun-14 16:57N 40°34' E 014°14'4 8.3
2018-Jun-14 16:30N 40°37' E 014°17'4 8.8
2018-Jun-14 16:00N 40°38' E 014°22'1 1.0
2018-Jun-14 15:29N 40°38' E 014°23'0 0.1
2018-Jun-14 14:59N 40°38' E 014°23'0 0.0
2018-Jun-14 14:29N 40°38' E 014°23'0 0.0
2018-Jun-14 13:59N 40°38' E 014°23'0 0.1
2018-Jun-14 13:29N 40°38' E 014°23'0 0.1
2018-Jun-14 12:56N 40°38' E 014°23'0 0.1
2018-Jun-14 12:29N 40°38' E 014°23'2 3.3
2018-Jun-14 12:01N 40°40' E 014°23'5 9.6
2018-Jun-14 11:28N 40°43' E 014°28'0 0.0
2018-Jun-13 22:32N 40°43' E 014°28'0 0.0
2018-Jun-13 16:56N 40°43' E 014°28'1 1.4
2018-Jun-13 16:26N 40°43' E 014°28'512.0
2018-Jun-13 16:00N 40°40' E 014°22'611.8
2018-Jun-13 15:30N 40°35' E 014°17'4 0.7
2018-Jun-13 10:27N 40°32' E 014°15'2 3.8
2018-Jun-13 10:00N 40°34' E 014°14'0 0.1
2018-Jun-13 09:14N 40°34' E 014°14'0 0.0
2018-Jun-13 08:56N 40°34' E 014°14'0 0.0
2018-Jun-13 08:17N 40°34' E 014°14'0 0.0
2018-Jun-13 07:59N 40°34' E 014°14'0 0.0
2018-Jun-13 07:23N 40°34' E 014°14'0 0.0
2018-Jun-13 06:56N 40°34' E 014°14'0 0.0
2018-Jun-13 06:29N 40°34' E 014°14'0 0.0
2018-Jun-13 05:56N 40°34' E 014°14'0 0.0
2018-Jun-13 05:26N 40°34' E 014°14'0 0.0
2018-Jun-13 04:59N 40°34' E 014°14'0 0.0
2018-Jun-13 04:29N 40°34' E 014°14'0 0.0
2018-Jun-13 03:59N 40°34' E 014°14'0 0.1
2018-Jun-13 03:26N 40°34' E 014°14'0 0.1
2018-Jun-13 02:59N 40°34' E 014°14'0 0.0
2018-Jun-13 02:29N 40°34' E 014°14'0 0.0
2018-Jun-13 01:59N 40°34' E 014°14'0 0.0
2018-Jun-13 01:29N 40°34' E 014°14'0 0.0
2018-Jun-13 00:56N 40°34' E 014°14'0 0.0
2018-Jun-13 00:29N 40°34' E 014°14'0 0.0
2018-Jun-12 23:59N 40°34' E 014°14'0 0.0
2018-Jun-12 23:29N 40°34' E 014°14'0 0.0
2018-Jun-12 22:59N 40°34' E 014°14'0 0.0
2018-Jun-12 22:29N 40°34' E 014°14'0 0.0
2018-Jun-12 21:59N 40°34' E 014°14'0 0.0
2018-Jun-12 21:29N 40°34' E 014°14'0 0.0
2018-Jun-12 20:59N 40°34' E 014°14'0 0.0
2018-Jun-12 20:29N 40°34' E 014°14'0 0.0
2018-Jun-12 19:56N 40°34' E 014°14'0 0.0
2018-Jun-12 19:29N 40°34' E 014°14'0 0.0
2018-Jun-12 18:53N 40°34' E 014°14'0 0.0
2018-Jun-12 18:29N 40°34' E 014°14'0 0.0
2018-Jun-12 17:59N 40°34' E 014°14'0 0.0
2018-Jun-12 17:29N 40°34' E 014°14'0 0.0
2018-Jun-12 16:59N 40°34' E 014°14'0 0.0
2018-Jun-12 16:26N 40°34' E 014°14'0 0.0
2018-Jun-12 15:59N 40°34' E 014°14'0 0.0
2018-Jun-12 15:29N 40°34' E 014°14'0 0.0
2018-Jun-12 14:59N 40°34' E 014°14'0 0.0
2018-Jun-12 14:29N 40°34' E 014°14'0 0.1
2018-Jun-12 13:59N 40°34' E 014°14'0 0.0
2018-Jun-12 13:29N 40°34' E 014°14'0 0.1
2018-Jun-12 12:53N 40°34' E 014°14'0 0.0
2018-Jun-12 12:23N 40°34' E 014°14'0 0.1
2018-Jun-12 11:56N 40°34' E 014°14'3 7.3
2018-Jun-12 11:30N 40°36' E 014°17'5 9.8
2018-Jun-12 11:00N 40°39' E 014°22'6 7.7
2018-Jun-12 10:11N 40°43' E 014°28'  

Dump ship's entire track history